Time;durP1;ratioP1;P1;durP2;ratioP2;P2;SDS_P1;SDS_P2;PMS_P1;PMS_P2;Temp;Humidity;BMP_temperature;BMP_pressure;BME280_temperature;BME280_humidity;BME280_pressure;Samples;Min_cycle;Max_cycle;Signal;HPM_P1;HPM_P2
2023/02/25 00:00:16;;;;;;;6.90;5.53;;;9.60;99.90;;;;;;5093121;28;20556;-73
2023/02/25 00:02:42;;;;;;;7.87;5.53;;;9.70;99.90;;;;;;5086967;28;20948;-73
2023/02/25 00:05:08;;;;;;;8.00;4.83;;;9.70;99.90;;;;;;5086892;28;20451;-74
2023/02/25 00:07:33;;;;;;;6.90;5.50;;;9.80;99.90;;;;;;5086346;28;20459;-73
2023/02/25 00:09:59;;;;;;;7.00;5.53;;;9.90;99.90;;;;;;5089466;28;20204;-73
2023/02/25 00:12:24;;;;;;;6.87;5.20;;;10.00;99.90;;;;;;5092499;28;20187;-73
2023/02/25 00:14:50;;;;;;;5.53;4.97;;;10.00;99.90;;;;;;5086937;28;20193;-74
2023/02/25 00:17:15;;;;;;;7.37;4.83;;;10.00;99.90;;;;;;5086812;28;20449;-73
2023/02/25 00:19:41;;;;;;;10.33;4.83;;;9.90;99.90;;;;;;5084200;28;20557;-73
2023/02/25 00:22:06;;;;;;;7.23;4.90;;;9.90;99.90;;;;;;5085456;28;20288;-73
2023/02/25 00:24:32;;;;;;;9.17;5.97;;;9.90;99.90;;;;;;5090557;28;20234;-73
2023/02/25 00:26:57;;;;;;;11.50;5.37;;;9.90;99.90;;;;;;5093361;28;20227;-74
2023/02/25 00:29:23;;;;;;;5.97;4.40;;;9.90;99.90;;;;;;5088876;28;20262;-76
2023/02/25 00:31:48;;;;;;;7.10;5.50;;;9.90;99.90;;;;;;5093755;28;20169;-76
2023/02/25 00:34:14;;;;;;;9.17;5.90;;;10.00;99.90;;;;;;5091809;28;20178;-74
2023/02/25 00:36:39;;;;;;;6.80;4.90;;;9.90;99.90;;;;;;5087007;28;21810;-75
2023/02/25 00:39:05;;;;;;;5.50;4.50;;;9.90;99.90;;;;;;5089746;28;20616;-74
2023/02/25 00:41:31;;;;;;;9.10;5.23;;;10.00;99.90;;;;;;5091477;27;20231;-74
2023/02/25 00:43:59;;;;;;;5.40;4.73;;;10.10;99.90;;;;;;5092639;27;20420;-75
2023/02/25 00:46:26;;;;;;;8.03;5.57;;;10.10;99.90;;;;;;5089311;28;20364;-73
2023/02/25 00:48:52;;;;;;;6.17;4.87;;;9.90;99.90;;;;;;5096888;27;21278;-73
2023/02/25 00:51:23;;;;;;;6.90;5.13;;;9.90;99.90;;;;;;5092844;28;20435;-73
2023/02/25 00:53:49;;;;;;;9.00;5.40;;;9.90;99.90;;;;;;5094204;27;20185;-75
2023/02/25 00:56:16;;;;;;;11.07;5.60;;;10.00;99.90;;;;;;5093223;27;21322;-73
2023/02/25 00:58:44;;;;;;;11.97;5.20;;;10.10;99.90;;;;;;5093041;28;20459;-73
2023/02/25 01:01:18;;;;;;;8.30;5.20;;;10.10;99.90;;;;;;5094433;28;20444;-73
2023/02/25 01:03:44;;;;;;;9.40;5.83;;;10.20;99.90;;;;;;5092645;27;20422;-74
2023/02/25 01:06:09;;;;;;;6.97;5.20;;;10.20;99.90;;;;;;5091775;27;20443;-73
2023/02/25 01:08:35;;;;;;;9.33;5.07;;;10.00;99.90;;;;;;5089551;27;20261;-73
2023/02/25 01:11:10;;;;;;;8.03;5.60;;;10.10;99.90;;;;;;5075591;28;20798;-73
2023/02/25 01:13:35;;;;;;;8.50;4.90;;;10.10;99.90;;;;;;5087575;27;20515;-73
2023/02/25 01:16:08;;;;;;;9.40;5.70;;;10.20;99.90;;;;;;5090019;27;20675;-73
2023/02/25 01:18:34;;;;;;;6.80;5.00;;;10.20;99.90;;;;;;5089891;27;20179;-75
2023/02/25 01:20:59;;;;;;;8.80;5.40;;;10.20;99.90;;;;;;5089942;28;20460;-74
2023/02/25 01:23:25;;;;;;;9.40;5.40;;;10.20;99.90;;;;;;5096619;27;20769;-74
2023/02/25 01:25:50;;;;;;;10.33;5.40;;;10.20;99.90;;;;;;5089966;27;20824;-73
2023/02/25 01:28:16;;;;;;;8.03;5.40;;;10.20;99.90;;;;;;5089626;27;20171;-73
2023/02/25 01:30:41;;;;;;;9.33;5.30;;;10.10;99.90;;;;;;5089865;28;20196;-73
2023/02/25 01:33:07;;;;;;;9.40;5.33;;;10.10;99.90;;;;;;5073470;28;20268;-74
2023/02/25 01:35:35;;;;;;;7.73;4.77;;;9.90;99.90;;;;;;5090090;27;20190;-75
2023/02/25 01:38:00;;;;;;;6.27;5.23;;;10.00;99.90;;;;;;5089924;27;20669;-75
2023/02/25 01:40:26;;;;;;;9.90;6.30;;;10.10;99.90;;;;;;5094307;27;20534;-74
2023/02/25 01:42:51;;;;;;;9.77;5.80;;;10.10;99.90;;;;;;5097007;27;20261;-75
2023/02/25 01:45:17;;;;;;;5.90;5.00;;;10.10;99.90;;;;;;5092597;28;20231;-73
2023/02/25 01:47:52;;;;;;;8.13;5.27;;;10.00;99.90;;;;;;5093420;28;20206;-72
2023/02/25 01:50:25;;;;;;;8.50;5.30;;;10.00;99.90;;;;;;5096170;27;20667;-72
2023/02/25 01:52:52;;;;;;;10.53;6.60;;;10.00;99.90;;;;;;5093996;28;20487;-72
2023/02/25 01:55:18;;;;;;;9.50;6.17;;;10.00;99.90;;;;;;5093077;27;20945;-72
2023/02/25 01:57:44;;;;;;;9.27;5.13;;;9.90;99.90;;;;;;5095236;27;20812;-72
2023/02/25 02:00:16;;;;;;;13.80;5.77;;;9.90;99.90;;;;;;5093908;28;20214;-72
2023/02/25 02:02:45;;;;;;;4.93;4.43;;;9.90;99.90;;;;;;5089374;28;20447;-72
2023/02/25 02:05:11;;;;;;;5.73;4.47;;;9.70;99.90;;;;;;5092777;28;21145;-72
2023/02/25 02:07:37;;;;;;;5.70;4.10;;;9.80;99.90;;;;;;5093861;27;20456;-72
2023/02/25 02:10:03;;;;;;;5.23;3.83;;;9.80;99.90;;;;;;5099731;27;20456;-72
2023/02/25 02:12:36;;;;;;;4.77;4.00;;;9.70;99.90;;;;;;5097003;27;20601;-72
2023/02/25 02:15:06;;;;;;;7.00;4.00;;;9.50;99.90;;;;;;5099457;27;20435;-72
2023/02/25 02:17:52;;;;;;;7.00;3.80;;;9.60;99.90;;;;;;5093052;27;20621;-72
2023/02/25 02:20:48;;;;;;;7.03;4.37;;;9.70;99.90;;;;;;5081912;28;20459;-72
2023/02/25 02:23:23;;;;;;;4.90;4.40;;;9.70;99.90;;;;;;5065705;27;21025;-72
2023/02/25 02:26:16;;;;;;;4.83;4.00;;;9.80;99.90;;;;;;5092194;28;20474;-71
2023/02/25 02:28:57;;;;;;;6.33;3.63;;;9.80;99.90;;;;;;5087182;28;20899;-71
2023/02/25 02:31:34;;;;;;;5.33;3.40;;;9.80;99.90;;;;;;5090662;27;20439;-72
2023/02/25 02:34:10;;;;;;;5.67;3.90;;;9.60;99.90;;;;;;5095578;28;20506;-71
2023/02/25 02:36:51;;;;;;;8.33;3.30;;;9.30;99.90;;;;;;5074508;28;20450;-71
2023/02/25 02:39:48;;;;;;;4.33;3.07;;;9.50;99.90;;;;;;5090882;27;20484;-72
2023/02/25 02:42:27;;;;;;;3.47;2.70;;;9.40;99.90;;;;;;5093082;27;20813;-73
2023/02/25 02:45:22;;;;;;;6.20;3.30;;;9.10;99.90;;;;;;5091690;28;20961;-74
2023/02/25 02:47:55;;;;;;;4.10;2.80;;;9.10;99.90;;;;;;5090514;27;20455;-73
2023/02/25 02:50:39;;;;;;;5.60;3.07;;;9.00;99.90;;;;;;5093528;28;20431;-73
2023/02/25 02:53:12;;;;;;;4.90;2.83;;;8.70;99.90;;;;;;5092514;28;20434;-73
2023/02/25 02:55:45;;;;;;;4.70;2.87;;;8.60;99.90;;;;;;5089991;27;20431;-72
2023/02/25 02:58:21;;;;;;;4.33;3.10;;;8.50;99.90;;;;;;5093383;27;20439;-73
2023/02/25 03:00:54;;;;;;;4.27;3.07;;;8.40;99.90;;;;;;5090125;27;20544;-73
2023/02/25 03:03:34;;;;;;;5.77;2.90;;;8.40;99.90;;;;;;5089793;28;20441;-72
2023/02/25 03:06:06;;;;;;;5.33;2.77;;;8.50;99.90;;;;;;5091035;27;20512;-72
2023/02/25 03:08:38;;;;;;;3.57;2.60;;;8.60;99.90;;;;;;5096010;27;20515;-71
2023/02/25 03:11:04;;;;;;;5.93;3.50;;;8.50;99.90;;;;;;5095670;27;22173;-71
2023/02/25 03:13:30;;;;;;;5.13;2.77;;;8.40;99.90;;;;;;5077399;27;20445;-71
2023/02/25 03:15:59;;;;;;;4.43;3.30;;;8.30;99.90;;;;;;5092764;28;20236;-72
2023/02/25 03:18:29;;;;;;;5.10;2.83;;;8.30;99.90;;;;;;5094706;28;20182;-72
2023/02/25 03:20:56;;;;;;;3.73;2.83;;;8.40;99.90;;;;;;5077084;27;20819;-71
2023/02/25 03:23:27;;;;;;;4.67;2.83;;;8.40;99.90;;;;;;5096581;27;20890;-72
2023/02/25 03:26:11;;;;;;;3.93;3.00;;;8.40;99.90;;;;;;5091575;27;21054;-71
2023/02/25 03:28:37;;;;;;;4.90;2.70;;;8.50;99.90;;;;;;5087824;28;20432;-71
2023/02/25 03:31:16;;;;;;;5.00;3.40;;;8.60;99.90;;;;;;5074411;28;20509;-71
2023/02/25 03:33:47;;;;;;;6.40;2.60;;;8.60;99.90;;;;;;5075569;28;20519;-72
2023/02/25 03:36:44;;;;;;;3.40;2.67;;;8.60;99.90;;;;;;5088460;27;20932;-72
2023/02/25 03:39:32;;;;;;;4.63;2.50;;;8.70;99.90;;;;;;5091606;27;20467;-72
2023/02/25 03:42:00;;;;;;;3.07;2.60;;;8.70;99.90;;;;;;5091532;28;20443;-72
2023/02/25 03:44:40;;;;;;;3.43;2.53;;;8.80;99.90;;;;;;5090387;28;20451;-72
2023/02/25 03:47:08;;;;;;;6.47;3.10;;;8.60;99.90;;;;;;5094092;28;20504;-72
2023/02/25 03:49:39;;;;;;;7.00;2.90;;;8.70;99.90;;;;;;5091981;28;20432;-74
2023/02/25 03:52:12;;;;;;;4.27;2.53;;;8.70;99.90;;;;;;5089365;28;20431;-73
2023/02/25 03:54:38;;;;;;;5.03;2.50;;;8.70;99.90;;;;;;5089844;28;20432;-73
2023/02/25 03:57:03;;;;;;;6.67;2.20;;;8.70;99.90;;;;;;5090158;28;20462;-73
2023/02/25 03:59:29;;;;;;;4.13;2.67;;;8.70;99.90;;;;;;5095128;28;20189;-72
2023/02/25 04:01:57;;;;;;;6.00;2.83;;;8.80;99.90;;;;;;5096234;28;20548;-72
2023/02/25 04:04:23;;;;;;;4.20;2.60;;;8.80;99.90;;;;;;5075573;28;20714;-72
2023/02/25 04:06:48;;;;;;;4.00;2.43;;;8.60;99.90;;;;;;5089733;28;20447;-72
2023/02/25 04:09:14;;;;;;;3.00;2.50;;;8.60;99.90;;;;;;5093478;28;20635;-72
2023/02/25 04:11:39;;;;;;;4.07;2.80;;;8.70;99.90;;;;;;5092193;28;20185;-72
2023/02/25 04:14:05;;;;;;;8.47;2.53;;;8.60;99.90;;;;;;5092293;28;20198;-72
2023/02/25 04:16:30;;;;;;;5.30;2.50;;;8.50;99.90;;;;;;5093689;28;20208;-72
2023/02/25 04:18:56;;;;;;;4.10;2.60;;;8.50;99.90;;;;;;5092181;28;20181;-71
2023/02/25 04:21:34;;;;;;;4.00;2.10;;;8.40;99.90;;;;;;5097107;28;20683;-71
2023/02/25 04:24:00;;;;;;;2.80;2.30;;;8.40;99.90;;;;;;5075721;28;20210;-71
2023/02/25 04:26:26;;;;;;;7.10;2.70;;;8.40;99.90;;;;;;5098012;27;20458;-71
2023/02/25 04:28:52;;;;;;;4.00;2.60;;;8.30;99.90;;;;;;5096387;28;20779;-73
2023/02/25 04:31:18;;;;;;;3.17;2.43;;;8.30;99.90;;;;;;5097115;27;20450;-73
2023/02/25 04:33:48;;;;;;;3.00;2.47;;;8.30;99.90;;;;;;5099307;27;20181;-73
2023/02/25 04:36:32;;;;;;;3.40;2.10;;;8.20;99.90;;;;;;5093575;28;20189;-73
2023/02/25 04:39:00;;;;;;;3.07;2.30;;;8.30;99.90;;;;;;5094624;28;20440;-73
2023/02/25 04:41:29;;;;;;;4.03;2.00;;;8.20;99.90;;;;;;5094541;27;20994;-73
2023/02/25 04:43:56;;;;;;;4.03;2.40;;;8.30;99.90;;;;;;5096553;28;20449;-74
2023/02/25 04:46:21;;;;;;;3.13;2.20;;;8.40;99.90;;;;;;5097118;28;20459;-73
2023/02/25 04:48:47;;;;;;;4.87;2.53;;;8.50;99.90;;;;;;5094450;28;20942;-74
2023/02/25 04:51:12;;;;;;;3.93;2.77;;;8.40;99.90;;;;;;5090415;28;20226;-74
2023/02/25 04:53:38;;;;;;;3.10;2.20;;;8.40;99.90;;;;;;5092726;27;20208;-72
2023/02/25 04:56:06;;;;;;;3.47;2.27;;;8.50;99.90;;;;;;5078901;28;20936;-73
2023/02/25 04:58:32;;;;;;;2.57;2.10;;;8.30;99.90;;;;;;5092022;27;20793;-73
2023/02/25 05:00:59;;;;;;;3.77;2.00;;;8.30;99.90;;;;;;5096647;27;20459;-73
2023/02/25 05:03:25;;;;;;;3.80;2.30;;;8.30;99.90;;;;;;5098436;28;20442;-74
2023/02/25 05:05:51;;;;;;;2.87;2.30;;;8.10;99.90;;;;;;5090545;27;20515;-73
2023/02/25 05:08:16;;;;;;;3.27;2.07;;;8.00;99.90;;;;;;5095983;27;20177;-73
2023/02/25 05:10:42;;;;;;;4.30;2.60;;;8.10;99.90;;;;;;5094287;27;20440;-73
2023/02/25 05:13:08;;;;;;;3.10;2.20;;;8.10;99.90;;;;;;5098933;27;20217;-73
2023/02/25 05:15:33;;;;;;;4.60;2.47;;;8.00;99.90;;;;;;5094578;27;20205;-73
2023/02/25 05:17:59;;;;;;;4.30;2.40;;;8.00;99.90;;;;;;5089386;28;20210;-72
2023/02/25 05:20:24;;;;;;;3.80;2.30;;;8.10;99.90;;;;;;5093862;27;20209;-71
2023/02/25 05:22:50;;;;;;;3.10;2.17;;;8.10;99.90;;;;;;5093031;27;20699;-71
2023/02/25 05:25:16;;;;;;;5.10;2.40;;;8.10;99.90;;;;;;5095326;27;20182;-71
2023/02/25 05:27:41;;;;;;;3.30;2.40;;;8.10;99.90;;;;;;5092061;28;20189;-71
2023/02/25 05:30:08;;;;;;;3.47;2.23;;;8.10;99.90;;;;;;5093101;28;20182;-71
2023/02/25 05:32:34;;;;;;;5.57;2.70;;;8.00;99.90;;;;;;5091268;28;20617;-71
2023/02/25 05:35:00;;;;;;;4.03;2.20;;;8.10;99.90;;;;;;5076306;28;20461;-72
2023/02/25 05:37:25;;;;;;;3.83;2.10;;;8.00;99.90;;;;;;5089326;27;21228;-71
2023/02/25 05:39:51;;;;;;;4.50;2.13;;;8.10;99.90;;;;;;5095014;27;20206;-71
2023/02/25 05:42:17;;;;;;;4.83;2.60;;;8.10;99.90;;;;;;5094769;27;20188;-72
2023/02/25 05:44:42;;;;;;;3.27;2.00;;;7.90;99.90;;;;;;5092632;27;20574;-72
2023/02/25 05:47:08;;;;;;;6.43;2.50;;;7.80;99.90;;;;;;5090793;28;20207;-72
2023/02/25 05:49:33;;;;;;;3.80;2.47;;;7.80;99.90;;;;;;5091705;28;20255;-72
2023/02/25 05:51:59;;;;;;;4.40;2.33;;;7.90;99.90;;;;;;5088106;27;20239;-72
2023/02/25 05:54:24;;;;;;;5.80;2.93;;;7.70;99.90;;;;;;5096661;27;20416;-72
2023/02/25 05:56:51;;;;;;;2.83;2.47;;;7.80;99.90;;;;;;5093248;27;20247;-72
2023/02/25 05:59:17;;;;;;;6.43;2.20;;;7.90;99.90;;;;;;5095547;27;20540;-72
2023/02/25 06:01:42;;;;;;;4.93;3.70;;;7.90;99.90;;;;;;5089089;27;20460;-71
2023/02/25 06:04:08;;;;;;;4.90;2.40;;;7.80;99.90;;;;;;5095062;27;20927;-72
2023/02/25 06:06:34;;;;;;;4.43;2.30;;;7.70;99.90;;;;;;5093599;28;20304;-72
2023/02/25 06:08:59;;;;;;;3.07;2.30;;;7.70;99.90;;;;;;5076157;28;20182;-71
2023/02/25 06:11:28;;;;;;;5.43;2.20;;;7.70;99.90;;;;;;5093241;28;20459;-71
2023/02/25 06:13:55;;;;;;;5.57;2.63;;;7.60;99.90;;;;;;5091750;28;20239;-71
2023/02/25 06:16:22;;;;;;;2.23;2.03;;;7.70;99.90;;;;;;5094464;28;20478;-71
2023/02/25 06:18:50;;;;;;;4.00;2.60;;;7.60;99.90;;;;;;5073182;28;20953;-71
2023/02/25 06:21:16;;;;;;;2.30;2.00;;;7.60;99.90;;;;;;5074927;27;20566;-72
2023/02/25 06:23:43;;;;;;;6.03;2.77;;;7.70;99.90;;;;;;5092925;28;20437;-72
2023/02/25 06:26:12;;;;;;;4.87;2.30;;;7.80;99.90;;;;;;5093500;27;20538;-73
2023/02/25 06:28:38;;;;;;;4.00;2.70;;;7.90;99.90;;;;;;5091475;28;20503;-72
2023/02/25 06:31:15;;;;;;;5.37;2.67;;;7.90;99.90;;;;;;5075790;28;20573;-73
2023/02/25 06:33:40;;;;;;;3.80;2.47;;;8.10;99.90;;;;;;5093968;27;20220;-72
2023/02/25 06:36:07;;;;;;;6.70;2.50;;;8.10;99.90;;;;;;5093011;27;20936;-72
2023/02/25 06:38:34;;;;;;;2.80;2.37;;;8.00;99.90;;;;;;5092720;28;20652;-73
2023/02/25 06:41:04;;;;;;;3.23;2.30;;;7.90;99.90;;;;;;5093352;28;20459;-73
2023/02/25 06:43:29;;;;;;;4.30;2.47;;;7.80;99.90;;;;;;5092053;27;20456;-73
2023/02/25 06:45:55;;;;;;;3.93;2.53;;;7.80;99.90;;;;;;5092620;27;20447;-73
2023/02/25 06:48:20;;;;;;;3.90;2.50;;;7.90;99.90;;;;;;5094692;28;20193;-74
2023/02/25 06:50:46;;;;;;;3.27;2.57;;;8.00;99.90;;;;;;5087292;28;20178;-72
2023/02/25 06:53:11;;;;;;;4.23;2.43;;;8.10;99.90;;;;;;5095373;27;20186;-73
2023/02/25 06:55:38;;;;;;;7.23;2.77;;;8.10;99.90;;;;;;5093859;28;20217;-73
2023/02/25 06:58:04;;;;;;;2.50;2.10;;;8.10;99.90;;;;;;5096282;27;20698;-73
2023/02/25 07:00:30;;;;;;;11.97;2.73;;;8.00;99.90;;;;;;5088960;27;20983;-72
2023/02/25 07:02:56;;;;;;;5.73;2.60;;;7.90;99.90;;;;;;5093512;27;20509;-72
2023/02/25 07:05:22;;;;;;;4.27;2.70;;;7.90;99.90;;;;;;5089216;27;20493;-72
2023/02/25 07:07:47;;;;;;;3.30;2.57;;;7.80;99.90;;;;;;5086251;28;21127;-71
2023/02/25 07:10:13;;;;;;;4.03;2.80;;;7.80;99.90;;;;;;5090696;27;20190;-72
2023/02/25 07:12:38;;;;;;;3.57;2.57;;;7.90;99.90;;;;;;5094203;27;20180;-72
2023/02/25 07:15:04;;;;;;;3.50;2.97;;;7.90;99.90;;;;;;5090095;28;20182;-72
2023/02/25 07:17:30;;;;;;;4.17;2.77;;;7.80;99.90;;;;;;5094194;27;20243;-73
2023/02/25 07:19:56;;;;;;;5.50;2.80;;;7.80;99.90;;;;;;5085980;28;20460;-73
2023/02/25 07:22:21;;;;;;;4.93;3.73;;;7.90;99.90;;;;;;5091468;27;20190;-73
2023/02/25 07:24:47;;;;;;;3.63;2.70;;;7.90;99.90;;;;;;5087527;27;20516;-73
2023/02/25 07:27:13;;;;;;;7.00;3.03;;;7.80;99.90;;;;;;5091909;28;20686;-73
2023/02/25 07:29:39;;;;;;;5.60;2.60;;;7.70;99.90;;;;;;5091508;28;20194;-72
2023/02/25 07:32:07;;;;;;;4.90;2.70;;;7.90;99.90;;;;;;5095514;27;20634;-72
2023/02/25 07:34:33;;;;;;;6.30;2.80;;;7.90;99.90;;;;;;5098325;27;20865;-72
2023/02/25 07:36:59;;;;;;;3.30;2.70;;;7.70;99.90;;;;;;5089913;28;20550;-72
2023/02/25 07:39:24;;;;;;;4.60;3.03;;;7.70;99.90;;;;;;5091088;28;20484;-73
2023/02/25 07:41:50;;;;;;;3.30;2.50;;;7.80;99.90;;;;;;5092349;27;20192;-73
2023/02/25 07:44:16;;;;;;;11.30;2.70;;;8.00;99.90;;;;;;5096271;28;20176;-73
2023/02/25 07:46:41;;;;;;;5.97;2.73;;;8.00;99.90;;;;;;5091561;28;20553;-73
2023/02/25 07:49:07;;;;;;;28.30;20.00;;;8.00;99.90;;;;;;5092084;28;20684;-73
2023/02/25 07:51:32;;;;;;;21.90;11.83;;;8.10;99.90;;;;;;5091162;28;20174;-73
2023/02/25 07:53:59;;;;;;;3.97;3.60;;;8.20;99.90;;;;;;5087636;28;20598;-73
2023/02/25 07:56:27;;;;;;;5.10;3.00;;;8.20;99.90;;;;;;5092253;28;20194;-72
2023/02/25 07:58:52;;;;;;;6.57;3.33;;;8.20;99.90;;;;;;5093849;28;20476;-72
2023/02/25 08:01:24;;;;;;;3.93;2.47;;;8.20;99.90;;;;;;5089946;28;20571;-73
2023/02/25 08:03:51;;;;;;;6.03;2.90;;;8.30;99.90;;;;;;5091635;28;20186;-72
2023/02/25 08:06:17;;;;;;;4.37;2.83;;;8.30;99.90;;;;;;5089395;28;20470;-72
2023/02/25 08:08:43;;;;;;;4.47;2.67;;;8.20;99.90;;;;;;5090748;28;20944;-72
2023/02/25 08:11:11;;;;;;;3.53;2.57;;;8.20;99.90;;;;;;5091696;28;20471;-72
2023/02/25 08:13:37;;;;;;;3.97;2.33;;;8.20;99.90;;;;;;5087272;28;20189;-72
2023/02/25 08:16:12;;;;;;;5.40;2.57;;;8.20;99.90;;;;;;5088297;28;20459;-73
2023/02/25 08:18:41;;;;;;;5.10;2.60;;;8.30;99.90;;;;;;5089999;28;20454;-72
2023/02/25 08:21:11;;;;;;;10.40;2.90;;;8.30;99.90;;;;;;5089451;28;20511;-72
2023/02/25 08:23:37;;;;;;;6.83;3.30;;;8.10;99.90;;;;;;5095515;28;20888;-72
2023/02/25 08:26:03;;;;;;;7.50;2.90;;;8.00;99.90;;;;;;5084534;28;21019;-73
2023/02/25 08:28:30;;;;;;;6.83;2.60;;;8.00;99.90;;;;;;5091168;28;20186;-72
2023/02/25 08:30:56;;;;;;;9.17;2.50;;;8.10;99.90;;;;;;5089001;28;20212;-72
2023/02/25 08:33:22;;;;;;;4.10;2.83;;;8.00;99.90;;;;;;5093678;28;20434;-73
2023/02/25 08:35:49;;;;;;;4.20;2.70;;;8.20;99.90;;;;;;5085500;28;21138;-72
2023/02/25 08:38:15;;;;;;;10.87;2.67;;;8.10;99.90;;;;;;5089755;28;20431;-74
2023/02/25 08:40:41;;;;;;;9.17;3.00;;;8.00;99.90;;;;;;5089570;28;20513;-73
2023/02/25 08:43:08;;;;;;;4.17;2.80;;;8.00;99.90;;;;;;5073156;28;20190;-73
2023/02/25 08:45:35;;;;;;;5.00;2.63;;;8.10;99.90;;;;;;5090739;28;20606;-73
2023/02/25 08:48:00;;;;;;;4.57;2.90;;;8.20;99.90;;;;;;5088292;28;20451;-75
2023/02/25 08:50:26;;;;;;;6.47;3.57;;;8.00;99.90;;;;;;5091638;28;20526;-75
2023/02/25 08:52:52;;;;;;;5.70;3.03;;;8.00;99.90;;;;;;5086837;28;20196;-75
2023/02/25 08:55:18;;;;;;;4.10;2.87;;;8.00;99.90;;;;;;5088568;28;20183;-75
2023/02/25 08:57:44;;;;;;;6.40;3.33;;;7.90;99.90;;;;;;5089512;28;20923;-73
2023/02/25 09:00:14;;;;;;;6.40;3.57;;;8.00;99.90;;;;;;5089312;28;20205;-72
2023/02/25 09:02:39;;;;;;;6.13;3.67;;;7.90;99.90;;;;;;5093485;28;20506;-73
2023/02/25 09:05:05;;;;;;;8.80;3.70;;;8.00;99.90;;;;;;5091240;28;20607;-73
2023/02/25 09:07:31;;;;;;;5.93;3.53;;;8.20;99.90;;;;;;5091804;27;20645;-73
2023/02/25 09:09:56;;;;;;;8.77;3.57;;;8.20;99.90;;;;;;5095396;28;20443;-72
2023/02/25 09:12:22;;;;;;;6.70;3.43;;;8.40;99.90;;;;;;5091526;27;20236;-73
2023/02/25 09:14:49;;;;;;;5.50;3.30;;;8.50;99.90;;;;;;5093869;28;20194;-73
2023/02/25 09:17:14;;;;;;;8.20;3.30;;;8.40;99.90;;;;;;5096774;27;20576;-75
2023/02/25 09:19:40;;;;;;;8.20;4.60;;;8.60;99.90;;;;;;5095181;27;21239;-75
2023/02/25 09:22:07;;;;;;;5.70;3.13;;;8.50;99.90;;;;;;5090968;28;20204;-75
2023/02/25 09:24:33;;;;;;;5.30;3.23;;;8.50;99.90;;;;;;5093423;28;20246;-74
2023/02/25 09:27:05;;;;;;;4.63;2.87;;;8.60;99.90;;;;;;5090542;27;20456;-74
2023/02/25 09:29:31;;;;;;;3.93;2.93;;;8.70;99.90;;;;;;5093740;28;20579;-74
2023/02/25 09:31:57;;;;;;;8.90;3.60;;;8.70;99.90;;;;;;5092698;28;20862;-73
2023/02/25 09:34:22;;;;;;;5.87;3.40;;;8.60;99.90;;;;;;5097218;27;20490;-74
2023/02/25 09:36:48;;;;;;;5.23;3.63;;;8.50;99.90;;;;;;5091701;28;20206;-73
2023/02/25 09:39:13;;;;;;;5.90;3.00;;;8.70;99.90;;;;;;5097651;27;21281;-73
2023/02/25 09:41:53;;;;;;;6.87;3.50;;;8.60;99.90;;;;;;5098432;27;20288;-73
2023/02/25 09:44:28;;;;;;;5.80;3.00;;;8.70;99.90;;;;;;5095167;28;20756;-73
2023/02/25 09:47:20;;;;;;;5.63;3.00;;;8.70;99.90;;;;;;5089261;28;20440;-73
2023/02/25 09:49:58;;;;;;;4.87;3.07;;;8.50;99.90;;;;;;5094954;27;21094;-73
2023/02/25 09:52:34;;;;;;;5.73;3.53;;;8.50;99.90;;;;;;5073095;28;20524;-73
2023/02/25 09:55:10;;;;;;;5.20;3.53;;;8.70;99.90;;;;;;5089790;28;20439;-73
2023/02/25 09:57:40;;;;;;;4.70;3.47;;;8.80;99.90;;;;;;5092083;27;20462;-73
2023/02/25 10:00:19;;;;;;;4.10;3.30;;;8.60;99.90;;;;;;5090364;27;20456;-73
2023/02/25 10:03:01;;;;;;;4.87;3.37;;;8.70;99.90;;;;;;5096171;27;20439;-73
2023/02/25 10:05:47;;;;;;;7.10;3.30;;;8.80;99.90;;;;;;5090501;27;20455;-73
2023/02/25 10:08:31;;;;;;;5.67;3.27;;;8.80;99.90;;;;;;5093302;27;21238;-74
2023/02/25 10:11:08;;;;;;;4.73;2.60;;;8.70;99.90;;;;;;5071293;27;21315;-73
2023/02/25 10:13:55;;;;;;;3.97;2.90;;;8.80;99.90;;;;;;5090451;27;20971;-73
2023/02/25 10:16:38;;;;;;;3.70;2.50;;;8.80;99.90;;;;;;5095328;28;20470;-73
2023/02/25 10:19:27;;;;;;;5.23;3.30;;;8.80;99.90;;;;;;5093776;27;20439;-73
2023/02/25 10:22:05;;;;;;;8.20;3.37;;;8.70;99.90;;;;;;5093727;27;21199;-74
2023/02/25 10:24:58;;;;;;;4.33;2.80;;;8.90;99.90;;;;;;5089668;27;20495;-75
2023/02/25 10:27:31;;;;;;;9.03;3.73;;;8.90;99.90;;;;;;5086489;27;20486;-75
2023/02/25 10:30:05;;;;;;;5.50;2.67;;;8.90;99.90;;;;;;5091573;28;20436;-75
2023/02/25 10:32:34;;;;;;;4.67;2.57;;;8.90;99.90;;;;;;5091469;27;20446;-72
2023/02/25 10:35:04;;;;;;;6.33;2.87;;;9.10;99.90;;;;;;5088270;27;20431;-73
2023/02/25 10:37:34;;;;;;;4.10;2.33;;;9.00;99.90;;;;;;5088583;28;20459;-71
2023/02/25 10:40:01;;;;;;;5.10;2.30;;;8.80;99.90;;;;;;5090476;28;20549;-71
2023/02/25 10:42:27;;;;;;;3.67;2.60;;;8.90;99.90;;;;;;5094185;28;20477;-72
2023/02/25 10:44:59;;;;;;;2.60;2.40;;;9.00;99.90;;;;;;5089377;28;20435;-71
2023/02/25 10:47:37;;;;;;;4.43;2.30;;;9.00;99.90;;;;;;5092043;27;20539;-72
2023/02/25 10:50:24;;;;;;;4.37;2.27;;;9.10;99.90;;;;;;5089278;27;20420;-73
2023/02/25 10:53:03;;;;;;;3.97;2.23;;;9.10;99.90;;;;;;5086029;28;20471;-72
2023/02/25 10:55:33;;;;;;;6.13;2.30;;;9.10;99.90;;;;;;5096524;27;20498;-72
2023/02/25 10:57:59;;;;;;;4.37;2.60;;;9.00;99.90;;;;;;5091172;27;20585;-72
2023/02/25 11:00:32;;;;;;;3.70;2.23;;;9.00;99.90;;;;;;5092005;27;20515;-72
2023/02/25 11:03:02;;;;;;;6.70;2.70;;;8.90;99.90;;;;;;5093876;27;20439;-73
2023/02/25 11:05:40;;;;;;;4.20;2.47;;;8.90;99.90;;;;;;5073897;28;20431;-73
2023/02/25 11:08:30;;;;;;;5.90;2.30;;;8.80;99.90;;;;;;5091999;27;20432;-73
2023/02/25 11:11:12;;;;;;;5.60;2.30;;;8.90;99.90;;;;;;5089994;28;20534;-72
2023/02/25 11:13:39;;;;;;;5.93;2.23;;;9.10;99.90;;;;;;5093082;28;20633;-72
2023/02/25 11:16:13;;;;;;;3.97;2.77;;;8.80;99.90;;;;;;5088234;28;20463;-74
2023/02/25 11:18:40;;;;;;;3.70;2.23;;;8.80;99.90;;;;;;5087453;28;20441;-74
2023/02/25 11:21:09;;;;;;;2.90;2.13;;;9.00;99.90;;;;;;5084826;28;21086;-75
2023/02/25 11:23:43;;;;;;;5.90;2.53;;;9.10;99.90;;;;;;5089510;27;20439;-75
2023/02/25 11:26:15;;;;;;;5.67;2.70;;;9.10;99.90;;;;;;5085280;28;20438;-72
2023/02/25 11:28:48;;;;;;;5.80;2.70;;;9.20;99.90;;;;;;5090111;28;20427;-73
2023/02/25 11:31:22;;;;;;;4.73;2.20;;;9.10;99.90;;;;;;5085749;28;20424;-73
2023/02/25 11:34:06;;;;;;;3.27;1.90;;;8.90;99.90;;;;;;5096375;28;20640;-73
2023/02/25 11:36:34;;;;;;;4.83;2.20;;;8.70;99.90;;;;;;5090422;28;20615;-72
2023/02/25 11:39:30;;;;;;;3.43;2.30;;;8.80;99.90;;;;;;5092306;28;20408;-72
2023/02/25 11:42:00;;;;;;;3.60;2.40;;;8.80;99.90;;;;;;5068699;28;20984;-73
2023/02/25 11:44:40;;;;;;;3.70;1.97;;;8.90;99.90;;;;;;5086787;28;20416;-75
2023/02/25 11:47:27;;;;;;;3.03;1.90;;;8.80;99.90;;;;;;5093505;28;20447;-73
2023/02/25 11:50:22;;;;;;;3.20;2.43;;;8.90;99.90;;;;;;5094006;28;20411;-73
2023/02/25 11:53:19;;;;;;;3.70;2.30;;;9.00;99.90;;;;;;5083862;28;20440;-72
2023/02/25 11:55:58;;;;;;;2.93;1.90;;;9.00;99.90;;;;;;5086672;28;21149;-72
2023/02/25 11:58:29;;;;;;;5.53;2.20;;;9.00;99.90;;;;;;5084178;28;20435;-74
2023/02/25 12:01:03;;;;;;;4.10;2.77;;;9.00;99.90;;;;;;5070354;28;20578;-74
2023/02/25 12:03:51;;;;;;;8.30;2.43;;;9.00;99.90;;;;;;5068265;28;21172;-73
2023/02/25 12:06:42;;;;;;;5.43;2.67;;;9.00;99.90;;;;;;5084472;28;20482;-75
2023/02/25 12:09:45;;;;;;;6.53;2.40;;;9.10;99.90;;;;;;5087191;28;20484;-75
2023/02/25 12:12:31;;;;;;;11.20;2.87;;;9.10;99.90;;;;;;5089051;28;20455;-75
2023/02/25 12:15:39;;;;;;;5.23;2.70;;;9.10;99.90;;;;;;5092734;28;20958;-75
2023/02/25 12:18:09;;;;;;;6.07;2.90;;;9.20;99.90;;;;;;5076541;28;20460;-75
2023/02/25 12:20:53;;;;;;;5.83;3.47;;;9.20;99.90;;;;;;5092730;28;20467;-74
2023/02/25 12:23:56;;;;;;;8.87;2.90;;;9.20;99.90;;;;;;5089459;28;20455;-73
2023/02/25 12:26:49;;;;;;;10.70;3.10;;;9.30;99.90;;;;;;5095339;28;20477;-74
2023/02/25 12:29:32;;;;;;;6.80;2.40;;;9.40;99.90;;;;;;5087667;28;20436;-75
2023/02/25 12:32:07;;;;;;;7.80;2.93;;;9.40;99.90;;;;;;5094078;28;20412;-74
2023/02/25 12:34:42;;;;;;;5.63;2.63;;;9.40;99.90;;;;;;5090951;28;20547;-72
2023/02/25 12:37:28;;;;;;;5.73;2.70;;;9.30;99.90;;;;;;5090730;28;20462;-74
2023/02/25 12:40:03;;;;;;;5.47;2.63;;;9.40;99.90;;;;;;5089249;28;20420;-74
2023/02/25 12:42:43;;;;;;;4.37;2.60;;;9.50;99.90;;;;;;5095291;27;20451;-74
2023/02/25 12:45:28;;;;;;;8.17;2.63;;;9.60;99.90;;;;;;5095249;28;20435;-75
2023/02/25 12:47:56;;;;;;;5.73;2.30;;;9.70;99.90;;;;;;5094559;28;20484;-72
2023/02/25 12:50:50;;;;;;;5.47;2.00;;;9.70;99.90;;;;;;5092534;28;21076;-73
2023/02/25 12:53:54;;;;;;;4.80;2.77;;;9.70;99.90;;;;;;5090993;28;20443;-73
2023/02/25 12:56:44;;;;;;;3.30;2.27;;;9.70;99.90;;;;;;5096618;28;20439;-72
2023/02/25 12:59:52;;;;;;;3.37;2.57;;;9.70;99.90;;;;;;5091831;27;20511;-72
2023/02/25 13:02:43;;;;;;;7.80;2.93;;;9.80;99.90;;;;;;5088463;27;20516;-72
2023/02/25 13:05:22;;;;;;;7.20;2.37;;;9.90;99.90;;;;;;5098727;27;20436;-72
2023/02/25 13:08:14;;;;;;;2.93;2.17;;;9.80;99.90;;;;;;5089487;28;20526;-72
2023/02/25 13:10:50;;;;;;;6.87;2.50;;;9.60;99.90;;;;;;5091507;28;20477;-72
2023/02/25 13:13:50;;;;;;;3.53;2.27;;;9.70;99.90;;;;;;5075537;28;20439;-72
2023/02/25 13:16:43;;;;;;;3.77;2.30;;;9.80;99.90;;;;;;5075475;28;20903;-71